createdAt,value
2019-03-16T00:02:14.202Z,5.90
2019-03-16T00:05:16.263Z,5.90
2019-03-16T00:08:17.869Z,5.80
2019-03-16T00:11:18.813Z,5.80
2019-03-16T00:14:20.133Z,5.70
2019-03-16T00:17:23.810Z,5.70
2019-03-16T00:20:23.075Z,5.80
2019-03-16T00:23:24.255Z,5.70
2019-03-16T00:26:26.098Z,5.70
2019-03-16T00:29:27.598Z,5.70
2019-03-16T00:32:28.860Z,5.70
2019-03-16T00:35:29.852Z,5.70
2019-03-16T00:38:30.176Z,5.60
2019-03-16T00:41:31.421Z,5.60
2019-03-16T00:44:32.440Z,5.60
2019-03-16T00:47:33.587Z,5.50
2019-03-16T00:50:34.632Z,5.60
2019-03-16T00:53:35.051Z,5.50
2019-03-16T00:56:36.086Z,5.60
2019-03-16T00:59:36.387Z,5.50
2019-03-16T01:02:37.456Z,5.50
2019-03-16T01:05:38.687Z,5.50
2019-03-16T01:08:39.735Z,5.30
2019-03-16T01:11:40.820Z,5.50
2019-03-16T01:14:41.947Z,5.50
2019-03-16T01:17:43.052Z,5.50
2019-03-16T01:20:44.191Z,5.30
2019-03-16T01:23:45.212Z,5.30
2019-03-16T01:26:46.228Z,5.40
2019-03-16T01:29:47.299Z,5.50
2019-03-16T01:32:48.279Z,5.30
2019-03-16T01:35:49.511Z,5.60
2019-03-16T01:38:50.536Z,5.50
2019-03-16T01:41:51.763Z,5.40
2019-03-16T01:44:53.112Z,5.40
2019-03-16T01:47:54.285Z,5.30
2019-03-16T01:50:55.407Z,5.30
2019-03-16T01:53:56.346Z,5.50
2019-03-16T01:56:57.229Z,5.50
2019-03-16T01:59:58.291Z,5.30
2019-03-16T02:02:59.330Z,5.50
2019-03-16T02:06:00.392Z,5.30
2019-03-16T02:09:02.473Z,5.50
2019-03-16T02:12:03.399Z,5.30
2019-03-16T02:15:04.509Z,5.30
2019-03-16T02:18:05.412Z,5.30
2019-03-16T02:21:06.573Z,5.30
2019-03-16T02:24:06.822Z,5.30
2019-03-16T02:27:08.075Z,5.30
2019-03-16T02:30:09.204Z,5.30
2019-03-16T02:33:13.167Z,5.40
2019-03-16T02:36:13.042Z,5.40
2019-03-16T02:39:14.067Z,5.20
2019-03-16T02:42:15.220Z,5.30
2019-03-16T02:45:16.286Z,5.20
2019-03-16T02:48:18.472Z,5.20
2019-03-16T02:51:19.580Z,5.30
2019-03-16T02:54:20.609Z,5.20
2019-03-16T02:57:21.931Z,5.30
2019-03-16T03:00:22.820Z,5.30
2019-03-16T03:03:29.711Z,5.30
2019-03-16T03:06:26.968Z,5.30
2019-03-16T03:09:27.136Z,5.40
2019-03-16T03:12:28.296Z,5.20
2019-03-16T03:15:29.212Z,5.30
2019-03-16T03:18:30.303Z,5.50
2019-03-16T03:21:31.512Z,5.30
2019-03-16T03:24:32.392Z,5.30
2019-03-16T03:27:33.435Z,5.30
2019-03-16T03:30:34.471Z,5.30
2019-03-16T03:33:57.133Z,5.30
2019-03-16T03:36:37.501Z,5.30
2019-03-16T03:39:47.479Z,5.30
2019-03-16T03:42:48.597Z,5.30
2019-03-16T03:45:50.564Z,5.30
2019-03-16T03:48:51.432Z,5.30
2019-03-16T03:51:52.551Z,5.30
2019-03-16T03:54:53.705Z,5.30
2019-03-16T03:57:54.568Z,5.30
2019-03-16T04:00:55.645Z,5.30
2019-03-16T04:04:14.234Z,5.20
2019-03-16T04:07:00.705Z,5.20
2019-03-16T04:10:01.737Z,5.20
2019-03-16T04:13:03.583Z,5.20
2019-03-16T04:16:04.549Z,5.30
2019-03-16T04:19:05.604Z,5.20
2019-03-16T04:22:06.701Z,5.20
2019-03-16T04:25:07.661Z,5.20
2019-03-16T04:28:08.780Z,5.20
2019-03-16T04:31:09.112Z,5.30
2019-03-16T04:34:10.109Z,5.30
2019-03-16T04:37:11.080Z,5.20
2019-03-16T04:40:12.393Z,5.30
2019-03-16T04:43:13.524Z,5.20
2019-03-16T04:46:14.649Z,5.20
2019-03-16T04:49:15.729Z,5.20
2019-03-16T04:52:16.652Z,5.20
2019-03-16T04:55:17.732Z,5.20
2019-03-16T04:58:18.751Z,5.30
2019-03-16T05:01:19.883Z,5.20
2019-03-16T05:04:20.756Z,5.20
2019-03-16T05:07:21.919Z,5.20
2019-03-16T05:10:23.035Z,5.20
2019-03-16T05:13:25.555Z,5.20
2019-03-16T05:16:27.498Z,5.20
2019-03-16T05:19:28.335Z,5.20
2019-03-16T05:22:29.501Z,5.20
2019-03-16T05:25:30.403Z,5.10
2019-03-16T05:28:31.480Z,5.20
2019-03-16T05:31:32.725Z,5.10
2019-03-16T05:34:33.815Z,5.20
2019-03-16T05:37:34.731Z,5.30
2019-03-16T05:40:35.612Z,5.20
2019-03-16T05:43:36.688Z,5.10
2019-03-16T05:46:37.785Z,5.20
2019-03-16T05:49:38.948Z,5.30
2019-03-16T05:52:40.123Z,5.10
2019-03-16T05:55:40.980Z,5.10
2019-03-16T05:58:41.956Z,5.10
2019-03-16T06:01:42.037Z,5.00
2019-03-16T06:04:43.131Z,5.10
2019-03-16T06:07:44.334Z,5.00
2019-03-16T06:10:45.331Z,5.10
2019-03-16T06:13:46.475Z,5.00
2019-03-16T06:16:47.236Z,5.00
2019-03-16T06:19:49.308Z,5.00
2019-03-16T06:22:50.567Z,5.00
2019-03-16T06:25:51.421Z,5.00
2019-03-16T06:28:52.523Z,4.90
2019-03-16T06:31:53.704Z,4.80
2019-03-16T06:34:54.736Z,4.70
2019-03-16T06:37:55.807Z,4.80
2019-03-16T06:40:56.965Z,4.80
2019-03-16T06:43:58.039Z,4.70
2019-03-16T06:46:59.002Z,4.80
2019-03-16T06:50:00.043Z,4.70
2019-03-16T06:53:01.216Z,4.70
2019-03-16T06:56:02.352Z,4.70
2019-03-16T06:59:03.336Z,4.60
2019-03-16T07:02:04.540Z,4.50
2019-03-16T07:05:04.792Z,4.50
2019-03-16T07:08:14.780Z,4.30
2019-03-16T07:11:15.835Z,4.40
2019-03-16T07:14:17.251Z,4.30
2019-03-16T07:17:18.111Z,4.30
2019-03-16T07:20:19.077Z,4.20
2019-03-16T07:23:20.209Z,4.00
2019-03-16T07:26:21.206Z,4.10
2019-03-16T07:29:21.496Z,3.90
2019-03-16T07:32:23.420Z,4.10
2019-03-16T07:35:24.592Z,4.00
2019-03-16T07:38:25.497Z,4.10
2019-03-16T07:41:26.491Z,4.00
2019-03-16T07:44:27.672Z,4.00
2019-03-16T07:47:28.795Z,4.00
2019-03-16T07:50:30.741Z,4.20
2019-03-16T07:53:31.839Z,4.10
2019-03-16T07:56:33.043Z,4.10
2019-03-16T07:59:36.987Z,4.10
2019-03-16T08:02:37.204Z,4.20
2019-03-16T08:05:38.144Z,4.20
2019-03-16T08:08:39.202Z,4.20
2019-03-16T08:11:39.296Z,4.20
2019-03-16T08:14:49.735Z,4.20
2019-03-16T08:17:50.736Z,4.20
2019-03-16T08:20:50.949Z,4.10
2019-03-16T08:24:00.987Z,4.10
2019-03-16T08:27:01.940Z,4.00
2019-03-16T08:30:03.055Z,3.90
2019-03-16T08:33:05.090Z,3.90
2019-03-16T08:36:06.579Z,3.80
2019-03-16T08:39:07.547Z,3.90
2019-03-16T08:42:08.627Z,3.80
2019-03-16T08:45:09.698Z,3.90
2019-03-16T08:48:22.313Z,3.90
2019-03-16T08:51:12.910Z,4.00
2019-03-16T08:54:13.825Z,3.90
2019-03-16T08:57:15.861Z,3.90
2019-03-16T09:00:17.036Z,4.00
2019-03-16T09:03:18.128Z,4.00
2019-03-16T09:06:19.146Z,4.10
2019-03-16T09:09:20.101Z,4.10
2019-03-16T09:12:07.531Z,4.20
2019-03-16T09:15:08.251Z,4.20
2019-03-16T09:18:09.216Z,4.10
2019-03-16T09:21:10.340Z,4.30
2019-03-16T09:24:10.721Z,4.20
2019-03-16T09:27:11.012Z,4.20
2019-03-16T09:30:21.363Z,4.20
2019-03-16T09:33:22.871Z,4.40
2019-03-16T09:36:23.742Z,4.40
2019-03-16T09:39:24.851Z,4.30
2019-03-16T09:42:25.959Z,4.40
2019-03-16T09:45:28.001Z,4.40
2019-03-16T09:48:29.023Z,4.50
2019-03-16T09:51:30.055Z,4.60
2019-03-16T09:54:31.134Z,4.60
2019-03-16T09:57:32.376Z,4.60
2019-03-16T10:00:33.543Z,4.70
2019-03-16T10:03:34.404Z,4.80
2019-03-16T10:06:36.522Z,4.70
2019-03-16T10:09:37.725Z,4.70
2019-03-16T10:12:38.689Z,4.80
2019-03-16T10:15:39.727Z,4.90
2019-03-16T10:18:40.860Z,5.00
2019-03-16T10:21:41.952Z,5.00
2019-03-16T10:24:43.045Z,5.00
2019-03-16T10:27:44.167Z,5.00
2019-03-16T10:30:45.192Z,5.00
2019-03-16T10:33:46.340Z,5.20
2019-03-16T10:36:47.713Z,5.00
2019-03-16T10:39:48.935Z,5.10
2019-03-16T10:42:49.921Z,5.20
2019-03-16T10:45:51.228Z,5.20
2019-03-16T10:48:52.086Z,5.20
2019-03-16T10:51:53.052Z,5.20
2019-03-16T10:54:53.364Z,5.30
2019-03-16T10:57:54.443Z,5.30
2019-03-16T11:00:55.748Z,5.30
2019-03-16T11:03:56.571Z,5.30
2019-03-16T11:06:57.563Z,5.40
2019-03-16T11:09:58.640Z,5.40
2019-03-16T11:12:58.819Z,5.30
2019-03-16T11:16:08.895Z,5.20
2019-03-16T11:19:09.045Z,5.30
2019-03-16T11:22:10.015Z,5.30
2019-03-16T11:25:10.225Z,5.50
2019-03-16T11:28:20.287Z,5.50
2019-03-16T11:31:22.312Z,5.70
2019-03-16T11:34:23.556Z,5.80
2019-03-16T11:37:24.534Z,5.80
2019-03-16T11:40:25.699Z,5.70
2019-03-16T11:43:26.675Z,5.80
2019-03-16T11:46:27.689Z,5.80
2019-03-16T11:49:28.861Z,5.80
2019-03-16T11:52:30.042Z,5.70
2019-03-16T11:55:31.272Z,5.90
2019-03-16T11:58:32.266Z,5.90
2019-03-16T12:01:33.097Z,5.90
2019-03-16T12:04:33.940Z,5.90
2019-03-16T12:07:21.375Z,6.10
2019-03-16T12:10:23.124Z,6.10
2019-03-16T12:13:23.908Z,6.20
2019-03-16T12:16:24.812Z,6.10
2019-03-16T12:19:25.777Z,6.30
2019-03-16T12:22:27.209Z,6.40
2019-03-16T12:25:28.304Z,6.50
2019-03-16T12:28:29.476Z,6.80
2019-03-16T12:31:30.488Z,7.20
2019-03-16T12:34:31.757Z,7.40
2019-03-16T12:37:32.792Z,7.80
2019-03-16T12:40:34.088Z,8.20
2019-03-16T12:43:35.096Z,8.20
2019-03-16T12:46:36.456Z,8.40
2019-03-16T12:49:37.452Z,8.60
2019-03-16T12:52:38.720Z,8.70
2019-03-16T12:55:40.597Z,8.90
2019-03-16T12:58:41.840Z,8.90
2019-03-16T13:01:42.784Z,9.10
2019-03-16T13:04:43.920Z,9.20
2019-03-16T13:07:44.926Z,9.30
2019-03-16T13:10:45.706Z,9.30
2019-03-16T13:16:19.596Z,9.40
2019-03-16T13:19:21.697Z,9.40
2019-03-16T13:22:23.608Z,9.40
2019-03-16T13:25:24.821Z,9.40
2019-03-16T13:28:25.951Z,9.30
2019-03-16T13:31:34.248Z,9.40
2019-03-16T13:37:42.308Z,9.40
2019-03-16T13:40:50.348Z,9.40
2019-03-16T13:43:52.453Z,9.50
2019-03-16T13:46:54.163Z,9.40
2019-03-16T13:49:56.296Z,9.50
2019-03-16T13:52:57.117Z,9.60
2019-03-16T13:56:05.315Z,9.70
2019-03-16T13:59:07.403Z,9.80
2019-03-16T14:02:09.488Z,9.60
2019-03-16T14:05:11.596Z,9.60
2019-03-16T14:08:13.848Z,9.60
2019-03-16T14:11:15.850Z,9.60
2019-03-16T14:14:16.979Z,9.50
2019-03-16T14:17:24.024Z,9.50
2019-03-16T14:20:35.073Z,9.50
2019-03-16T14:23:37.268Z,9.40
2019-03-16T14:26:38.503Z,9.40
2019-03-16T14:29:50.675Z,9.40
2019-03-16T14:32:52.677Z,9.30
2019-03-16T14:35:53.863Z,9.30
2019-03-16T14:39:04.023Z,9.30
2019-03-16T14:42:05.225Z,9.20
2019-03-16T14:45:13.264Z,9.30
2019-03-16T14:48:14.356Z,9.30
2019-03-16T14:51:24.583Z,9.30
2019-03-16T14:54:24.723Z,9.30
2019-03-16T14:57:26.909Z,9.40
2019-03-16T15:00:38.524Z,9.40
2019-03-16T15:03:32.052Z,9.40
2019-03-16T15:06:33.524Z,9.20
2019-03-16T15:09:34.686Z,9.20
2019-03-16T15:12:46.747Z,9.10
2019-03-16T15:15:47.910Z,9.00
2019-03-16T15:18:59.028Z,9.10
2019-03-16T15:22:01.188Z,9.00
2019-03-16T15:25:02.366Z,9.20
2019-03-16T15:28:04.313Z,9.10
2019-03-16T15:31:06.163Z,9.10
2019-03-16T15:34:07.156Z,9.20
2019-03-16T15:37:19.241Z,9.20
2019-03-16T15:40:21.335Z,9.10
2019-03-16T15:43:23.505Z,9.20
2019-03-16T15:46:25.711Z,9.20
2019-03-16T15:49:27.660Z,9.10
2019-03-16T15:52:28.886Z,9.10
2019-03-16T15:55:30.956Z,8.90
2019-03-16T15:58:32.179Z,9.10
2019-03-16T16:01:40.656Z,9.20
2019-03-16T16:04:42.263Z,9.00
2019-03-16T16:07:53.283Z,8.90
2019-03-16T16:11:00.907Z,9.00
2019-03-16T16:13:58.609Z,9.00
2019-03-16T16:17:00.667Z,8.90
2019-03-16T16:20:02.685Z,8.90
2019-03-16T16:23:04.682Z,8.90
2019-03-16T16:26:05.886Z,8.90
2019-03-16T16:29:07.976Z,8.80
2019-03-16T16:32:18.937Z,8.90
2019-03-16T16:35:21.137Z,8.80
2019-03-16T16:38:22.329Z,8.90
2019-03-16T16:41:25.632Z,8.80
2019-03-16T16:44:27.309Z,8.70
2019-03-16T16:47:29.204Z,8.70
2019-03-16T16:50:30.173Z,8.60
2019-03-16T16:53:42.396Z,8.50
2019-03-16T16:56:44.322Z,8.50
2019-03-16T16:59:45.492Z,8.50
2019-03-16T17:02:52.914Z,8.50
2019-03-16T17:05:54.812Z,8.50
2019-03-16T17:08:56.004Z,8.60
2019-03-16T17:11:58.108Z,8.50
2019-03-16T17:14:59.156Z,8.60
2019-03-16T17:18:07.211Z,8.60
2019-03-16T17:21:09.296Z,8.60
2019-03-16T17:24:10.392Z,8.50
2019-03-16T17:27:07.371Z,8.60
2019-03-16T17:30:09.469Z,8.50
2019-03-16T17:33:10.492Z,8.50
2019-03-16T17:36:22.597Z,8.50
2019-03-16T17:39:24.753Z,8.50
2019-03-16T17:42:25.884Z,8.50
2019-03-16T17:45:32.899Z,8.40
2019-03-16T17:48:20.360Z,8.50
2019-03-16T17:51:22.115Z,8.50
2019-03-16T17:54:23.160Z,8.50
2019-03-16T17:57:31.320Z,8.50
2019-03-16T18:00:33.348Z,8.50
2019-03-16T18:03:35.327Z,8.50
2019-03-16T18:06:37.548Z,8.50
2019-03-16T18:09:39.471Z,8.60
2019-03-16T18:12:40.676Z,8.50
2019-03-16T18:15:41.999Z,8.50
2019-03-16T18:18:44.155Z,8.60
2019-03-16T18:21:45.324Z,8.40
2019-03-16T18:24:57.435Z,8.50
2019-03-16T18:27:58.697Z,8.30
2019-03-16T18:31:05.905Z,8.50
2019-03-16T18:34:07.870Z,8.50
2019-03-16T18:37:09.963Z,8.40
2019-03-16T18:40:12.096Z,8.30
2019-03-16T18:43:14.071Z,8.40
2019-03-16T18:46:15.200Z,8.40
2019-03-16T18:49:16.299Z,8.40
2019-03-16T18:52:24.380Z,8.40
2019-03-16T18:55:27.652Z,8.40
2019-03-16T18:58:37.134Z,8.30
2019-03-16T19:01:32.971Z,8.40
2019-03-16T19:04:33.989Z,8.40
2019-03-16T19:07:36.098Z,8.40
2019-03-16T19:10:38.009Z,8.30
2019-03-16T19:13:40.000Z,8.40
2019-03-16T19:16:42.087Z,8.40
2019-03-16T19:19:43.476Z,8.30
2019-03-16T19:22:51.673Z,8.30
2019-03-16T19:25:52.836Z,8.30
2019-03-16T19:29:01.025Z,8.30
2019-03-16T19:32:01.987Z,8.30
2019-03-16T19:35:10.070Z,8.40
2019-03-16T19:38:18.181Z,8.20
2019-03-16T19:41:20.347Z,8.10
2019-03-16T19:44:21.345Z,8.30
2019-03-16T19:47:32.671Z,8.10
2019-03-16T19:50:39.828Z,8.30
2019-03-16T19:53:46.904Z,8.30
2019-03-16T19:56:54.975Z,8.20
2019-03-16T19:59:57.976Z,8.30
2019-03-16T20:03:01.089Z,8.20
2019-03-16T20:06:02.155Z,8.20
2019-03-16T20:09:10.332Z,8.20
2019-03-16T20:12:12.415Z,8.20
2019-03-16T20:15:14.496Z,8.20
2019-03-16T20:18:15.655Z,8.10
2019-03-16T20:21:16.995Z,8.20
2019-03-16T20:24:18.935Z,8.10
2019-03-16T20:27:20.862Z,8.10
2019-03-16T20:30:26.763Z,8.00
2019-03-16T20:33:25.952Z,8.20
2019-03-16T20:36:28.931Z,8.10
2019-03-16T20:39:29.887Z,8.00
2019-03-16T20:42:37.889Z,8.00
2019-03-16T20:45:38.971Z,8.10
2019-03-16T20:48:40.299Z,8.00
2019-03-16T20:51:42.298Z,8.00
2019-03-16T20:54:44.444Z,7.90
2019-03-16T20:57:46.512Z,7.90
2019-03-16T21:00:49.568Z,7.80
2019-03-16T21:03:50.632Z,7.80
2019-03-16T21:06:58.803Z,7.70
2019-03-16T21:10:06.792Z,7.80
2019-03-16T21:13:07.939Z,7.80
2019-03-16T21:16:10.065Z,7.80
2019-03-16T21:19:12.071Z,7.80
2019-03-16T21:22:14.138Z,7.80
2019-03-16T21:25:16.519Z,7.70
2019-03-16T21:28:18.689Z,7.60
2019-03-16T21:31:20.690Z,7.80
2019-03-16T21:34:22.536Z,7.60
2019-03-16T21:37:24.396Z,7.60
2019-03-16T21:40:26.436Z,7.80
2019-03-16T21:43:27.564Z,7.70
2019-03-16T21:46:38.564Z,7.70
2019-03-16T21:49:40.759Z,7.70
2019-03-16T21:52:44.413Z,7.70
2019-03-16T21:55:45.919Z,7.50
2019-03-16T21:58:54.038Z,7.60
2019-03-16T22:01:55.321Z,7.70
2019-03-16T22:05:06.509Z,7.60
2019-03-16T22:08:18.647Z,7.60
2019-03-16T22:11:20.676Z,7.50
2019-03-16T22:14:23.700Z,7.40
2019-03-16T22:17:25.704Z,7.40
2019-03-16T22:20:27.640Z,7.50
2019-03-16T22:23:29.682Z,7.50
2019-03-16T22:26:30.970Z,7.50
2019-03-16T22:29:32.131Z,7.50
2019-03-16T22:32:34.163Z,7.40
2019-03-16T22:35:36.243Z,7.40
2019-03-16T22:38:37.455Z,7.30
2019-03-16T22:41:40.636Z,7.30
2019-03-16T22:44:42.638Z,7.30
2019-03-16T22:47:43.716Z,7.30
2019-03-16T22:50:55.139Z,7.30
2019-03-16T22:53:56.369Z,7.30
2019-03-16T22:57:03.538Z,7.30
2019-03-16T23:00:11.524Z,7.30
2019-03-16T23:03:14.573Z,7.20
2019-03-16T23:06:22.683Z,7.20
2019-03-16T23:09:24.732Z,7.20
2019-03-16T23:12:26.759Z,7.10
2019-03-16T23:15:28.695Z,7.10
2019-03-16T23:18:30.963Z,7.20
2019-03-16T23:21:33.197Z,7.00
2019-03-16T23:24:35.096Z,7.00
2019-03-16T23:27:36.352Z,7.00
2019-03-16T23:30:38.321Z,6.80
2019-03-16T23:33:39.560Z,6.80
2019-03-16T23:36:41.719Z,6.70
2019-03-16T23:39:43.845Z,6.80
2019-03-16T23:42:45.703Z,6.80
2019-03-16T23:45:47.696Z,6.90
2019-03-16T23:48:48.639Z,6.70
2019-03-16T23:51:50.635Z,6.80
2019-03-16T23:54:52.725Z,6.70
2019-03-16T23:57:56.340Z,6.70
